sensor_id;sensor_type;location;lat;lon;timestamp;P1;durP1;ratioP1;P2;durP2;ratioP2
21806;SDS011;11065;50.786;7.840;2023-08-21T00:01:35;8.60;;;7.80;;
21806;SDS011;11065;50.786;7.840;2023-08-21T00:04:03;10.70;;;7.90;;
21806;SDS011;11065;50.786;7.840;2023-08-21T00:06:31;8.93;;;7.37;;
21806;SDS011;11065;50.786;7.840;2023-08-21T00:09:01;9.93;;;7.30;;
21806;SDS011;11065;50.786;7.840;2023-08-21T00:11:29;9.37;;;6.90;;
21806;SDS011;11065;50.786;7.840;2023-08-21T00:13:57;8.37;;;7.07;;
21806;SDS011;11065;50.786;7.840;2023-08-21T00:16:25;9.03;;;7.63;;
21806;SDS011;11065;50.786;7.840;2023-08-21T00:18:54;9.93;;;8.17;;
21806;SDS011;11065;50.786;7.840;2023-08-21T00:21:22;18.27;;;8.80;;
21806;SDS011;11065;50.786;7.840;2023-08-21T00:23:51;8.20;;;7.33;;
21806;SDS011;11065;50.786;7.840;2023-08-21T00:26:20;10.30;;;7.60;;
21806;SDS011;11065;50.786;7.840;2023-08-21T00:28:48;10.80;;;7.40;;
21806;SDS011;11065;50.786;7.840;2023-08-21T00:31:15;8.23;;;7.43;;
21806;SDS011;11065;50.786;7.840;2023-08-21T00:33:44;8.93;;;7.40;;
21806;SDS011;11065;50.786;7.840;2023-08-21T00:36:11;10.97;;;7.47;;
21806;SDS011;11065;50.786;7.840;2023-08-21T00:38:39;7.93;;;7.13;;
21806;SDS011;11065;50.786;7.840;2023-08-21T00:41:07;9.17;;;7.97;;
21806;SDS011;11065;50.786;7.840;2023-08-21T00:43:36;8.27;;;7.37;;
21806;SDS011;11065;50.786;7.840;2023-08-21T00:46:04;9.00;;;8.10;;
21806;SDS011;11065;50.786;7.840;2023-08-21T00:48:33;12.33;;;7.17;;
21806;SDS011;11065;50.786;7.840;2023-08-21T00:51:02;8.23;;;7.20;;
21806;SDS011;11065;50.786;7.840;2023-08-21T00:53:30;10.70;;;8.17;;
21806;SDS011;11065;50.786;7.840;2023-08-21T00:55:58;9.43;;;8.00;;
21806;SDS011;11065;50.786;7.840;2023-08-21T00:58:26;9.17;;;8.27;;
21806;SDS011;11065;50.786;7.840;2023-08-21T01:00:56;9.53;;;7.23;;
21806;SDS011;11065;50.786;7.840;2023-08-21T01:03:24;9.30;;;7.13;;
21806;SDS011;11065;50.786;7.840;2023-08-21T01:05:52;12.30;;;7.57;;
21806;SDS011;11065;50.786;7.840;2023-08-21T01:08:25;9.43;;;6.87;;
21806;SDS011;11065;50.786;7.840;2023-08-21T01:10:58;7.63;;;6.90;;
21806;SDS011;11065;50.786;7.840;2023-08-21T01:13:36;8.50;;;6.87;;
21806;SDS011;11065;50.786;7.840;2023-08-21T01:16:13;9.93;;;7.23;;
21806;SDS011;11065;50.786;7.840;2023-08-21T01:18:41;8.77;;;7.87;;
21806;SDS011;11065;50.786;7.840;2023-08-21T01:21:11;8.63;;;7.73;;
21806;SDS011;11065;50.786;7.840;2023-08-21T01:23:41;9.40;;;7.80;;
21806;SDS011;11065;50.786;7.840;2023-08-21T01:26:09;8.20;;;7.40;;
21806;SDS011;11065;50.786;7.840;2023-08-21T01:28:37;9.33;;;7.60;;
21806;SDS011;11065;50.786;7.840;2023-08-21T01:31:07;10.00;;;8.17;;
21806;SDS011;11065;50.786;7.840;2023-08-21T01:33:40;10.87;;;7.63;;
21806;SDS011;11065;50.786;7.840;2023-08-21T01:36:13;10.77;;;7.80;;
21806;SDS011;11065;50.786;7.840;2023-08-21T01:38:43;10.30;;;7.53;;
21806;SDS011;11065;50.786;7.840;2023-08-21T01:41:12;12.47;;;7.83;;
21806;SDS011;11065;50.786;7.840;2023-08-21T01:43:39;10.90;;;8.13;;
21806;SDS011;11065;50.786;7.840;2023-08-21T01:46:07;8.70;;;7.77;;
21806;SDS011;11065;50.786;7.840;2023-08-21T01:48:36;8.87;;;7.90;;
21806;SDS011;11065;50.786;7.840;2023-08-21T01:51:04;9.50;;;8.37;;
21806;SDS011;11065;50.786;7.840;2023-08-21T01:53:32;9.43;;;8.03;;
21806;SDS011;11065;50.786;7.840;2023-08-21T01:56:01;9.67;;;8.27;;
21806;SDS011;11065;50.786;7.840;2023-08-21T01:58:31;9.00;;;8.10;;
21806;SDS011;11065;50.786;7.840;2023-08-21T02:00:59;8.67;;;7.77;;
21806;SDS011;11065;50.786;7.840;2023-08-21T02:03:27;9.40;;;7.90;;
21806;SDS011;11065;50.786;7.840;2023-08-21T02:05:57;8.70;;;7.63;;
21806;SDS011;11065;50.786;7.840;2023-08-21T02:08:27;7.83;;;7.03;;
21806;SDS011;11065;50.786;7.840;2023-08-21T02:10:58;9.83;;;7.77;;
21806;SDS011;11065;50.786;7.840;2023-08-21T02:13:28;13.73;;;7.90;;
21806;SDS011;11065;50.786;7.840;2023-08-21T02:15:56;8.93;;;8.07;;
21806;SDS011;11065;50.786;7.840;2023-08-21T02:18:24;10.97;;;7.77;;
21806;SDS011;11065;50.786;7.840;2023-08-21T02:20:51;9.33;;;8.30;;
21806;SDS011;11065;50.786;7.840;2023-08-21T02:23:19;8.03;;;6.97;;
21806;SDS011;11065;50.786;7.840;2023-08-21T02:25:47;9.83;;;7.27;;
21806;SDS011;11065;50.786;7.840;2023-08-21T02:28:16;9.20;;;8.20;;
21806;SDS011;11065;50.786;7.840;2023-08-21T02:30:48;8.57;;;7.73;;
21806;SDS011;11065;50.786;7.840;2023-08-21T02:33:16;9.70;;;7.90;;
21806;SDS011;11065;50.786;7.840;2023-08-21T02:35:44;11.93;;;8.00;;
21806;SDS011;11065;50.786;7.840;2023-08-21T02:38:12;8.60;;;7.70;;
21806;SDS011;11065;50.786;7.840;2023-08-21T02:40:40;10.67;;;7.43;;
21806;SDS011;11065;50.786;7.840;2023-08-21T02:43:08;9.93;;;7.90;;
21806;SDS011;11065;50.786;7.840;2023-08-21T02:45:36;9.03;;;7.80;;
21806;SDS011;11065;50.786;7.840;2023-08-21T02:48:05;9.20;;;7.73;;
21806;SDS011;11065;50.786;7.840;2023-08-21T02:50:33;9.23;;;8.00;;
21806;SDS011;11065;50.786;7.840;2023-08-21T02:53:01;8.73;;;7.67;;
21806;SDS011;11065;50.786;7.840;2023-08-21T02:55:29;9.33;;;7.23;;
21806;SDS011;11065;50.786;7.840;2023-08-21T02:57:58;9.30;;;7.57;;
21806;SDS011;11065;50.786;7.840;2023-08-21T03:00:26;8.87;;;7.00;;
21806;SDS011;11065;50.786;7.840;2023-08-21T03:02:53;8.80;;;7.80;;
21806;SDS011;11065;50.786;7.840;2023-08-21T03:05:23;8.43;;;7.57;;
21806;SDS011;11065;50.786;7.840;2023-08-21T03:07:51;8.13;;;6.73;;
21806;SDS011;11065;50.786;7.840;2023-08-21T03:10:19;7.93;;;7.13;;
21806;SDS011;11065;50.786;7.840;2023-08-21T03:12:47;10.80;;;7.93;;
21806;SDS011;11065;50.786;7.840;2023-08-21T03:15:15;9.90;;;7.27;;
21806;SDS011;11065;50.786;7.840;2023-08-21T03:17:43;9.43;;;7.37;;
21806;SDS011;11065;50.786;7.840;2023-08-21T03:20:11;8.23;;;7.40;;
21806;SDS011;11065;50.786;7.840;2023-08-21T03:22:40;8.53;;;7.13;;
21806;SDS011;11065;50.786;7.840;2023-08-21T03:25:08;9.40;;;7.67;;
21806;SDS011;11065;50.786;7.840;2023-08-21T03:27:37;10.87;;;8.03;;
21806;SDS011;11065;50.786;7.840;2023-08-21T03:30:06;8.23;;;7.43;;
21806;SDS011;11065;50.786;7.840;2023-08-21T03:32:36;8.27;;;7.30;;
21806;SDS011;11065;50.786;7.840;2023-08-21T03:35:05;8.90;;;8.00;;
21806;SDS011;11065;50.786;7.840;2023-08-21T03:37:34;10.30;;;7.57;;
21806;SDS011;11065;50.786;7.840;2023-08-21T03:40:05;8.47;;;7.67;;
21806;SDS011;11065;50.786;7.840;2023-08-21T03:42:34;8.90;;;7.67;;
21806;SDS011;11065;50.786;7.840;2023-08-21T03:45:02;8.77;;;7.47;;
21806;SDS011;11065;50.786;7.840;2023-08-21T03:47:32;11.00;;;7.87;;
21806;SDS011;11065;50.786;7.840;2023-08-21T03:50:05;10.93;;;8.37;;
21806;SDS011;11065;50.786;7.840;2023-08-21T03:52:35;9.83;;;7.63;;
21806;SDS011;11065;50.786;7.840;2023-08-21T03:55:05;9.83;;;7.50;;
21806;SDS011;11065;50.786;7.840;2023-08-21T03:57:33;12.27;;;7.90;;
21806;SDS011;11065;50.786;7.840;2023-08-21T04:00:03;9.47;;;7.00;;
21806;SDS011;11065;50.786;7.840;2023-08-21T04:02:40;9.77;;;7.17;;
21806;SDS011;11065;50.786;7.840;2023-08-21T04:05:09;10.37;;;7.00;;
21806;SDS011;11065;50.786;7.840;2023-08-21T04:07:37;7.43;;;6.17;;
21806;SDS011;11065;50.786;7.840;2023-08-21T04:10:07;9.00;;;6.57;;
21806;SDS011;11065;50.786;7.840;2023-08-21T04:12:35;7.63;;;6.90;;
21806;SDS011;11065;50.786;7.840;2023-08-21T04:15:04;8.23;;;6.93;;
21806;SDS011;11065;50.786;7.840;2023-08-21T04:17:34;7.50;;;6.60;;
21806;SDS011;11065;50.786;7.840;2023-08-21T04:20:02;7.80;;;7.03;;
21806;SDS011;11065;50.786;7.840;2023-08-21T04:22:30;10.77;;;7.70;;
21806;SDS011;11065;50.786;7.840;2023-08-21T04:24:59;8.27;;;7.27;;
21806;SDS011;11065;50.786;7.840;2023-08-21T04:27:29;10.10;;;7.77;;
21806;SDS011;11065;50.786;7.840;2023-08-21T04:29:56;12.07;;;8.40;;
21806;SDS011;11065;50.786;7.840;2023-08-21T04:32:25;9.20;;;7.33;;
21806;SDS011;11065;50.786;7.840;2023-08-21T04:34:54;8.97;;;7.80;;
21806;SDS011;11065;50.786;7.840;2023-08-21T04:37:22;9.77;;;7.67;;
21806;SDS011;11065;50.786;7.840;2023-08-21T04:39:50;9.83;;;8.13;;
21806;SDS011;11065;50.786;7.840;2023-08-21T04:42:18;9.70;;;7.60;;
21806;SDS011;11065;50.786;7.840;2023-08-21T04:44:48;8.27;;;7.47;;
21806;SDS011;11065;50.786;7.840;2023-08-21T04:47:20;8.53;;;7.70;;
21806;SDS011;11065;50.786;7.840;2023-08-21T04:49:53;7.97;;;6.90;;
21806;SDS011;11065;50.786;7.840;2023-08-21T04:52:22;8.03;;;7.00;;
21806;SDS011;11065;50.786;7.840;2023-08-21T04:54:51;10.47;;;7.33;;
21806;SDS011;11065;50.786;7.840;2023-08-21T04:57:19;9.27;;;7.23;;
21806;SDS011;11065;50.786;7.840;2023-08-21T04:59:49;8.13;;;7.03;;
21806;SDS011;11065;50.786;7.840;2023-08-21T05:02:19;9.60;;;6.70;;
21806;SDS011;11065;50.786;7.840;2023-08-21T05:04:49;9.97;;;7.00;;
21806;SDS011;11065;50.786;7.840;2023-08-21T05:07:17;9.00;;;7.20;;
21806;SDS011;11065;50.786;7.840;2023-08-21T05:09:45;8.60;;;7.70;;
21806;SDS011;11065;50.786;7.840;2023-08-21T05:12:14;9.27;;;8.17;;
21806;SDS011;11065;50.786;7.840;2023-08-21T05:14:42;9.93;;;7.90;;
21806;SDS011;11065;50.786;7.840;2023-08-21T05:17:13;10.17;;;8.67;;
21806;SDS011;11065;50.786;7.840;2023-08-21T05:19:41;10.40;;;8.20;;
21806;SDS011;11065;50.786;7.840;2023-08-21T05:22:09;12.43;;;9.67;;
21806;SDS011;11065;50.786;7.840;2023-08-21T05:24:37;10.13;;;9.03;;
21806;SDS011;11065;50.786;7.840;2023-08-21T05:27:05;8.60;;;7.70;;
21806;SDS011;11065;50.786;7.840;2023-08-21T05:29:33;10.67;;;8.83;;
21806;SDS011;11065;50.786;7.840;2023-08-21T05:32:02;12.57;;;9.23;;
21806;SDS011;11065;50.786;7.840;2023-08-21T05:34:31;11.00;;;8.90;;
21806;SDS011;11065;50.786;7.840;2023-08-21T05:37:00;8.17;;;7.37;;
21806;SDS011;11065;50.786;7.840;2023-08-21T05:39:29;9.50;;;8.07;;
21806;SDS011;11065;50.786;7.840;2023-08-21T05:41:57;10.87;;;7.77;;
21806;SDS011;11065;50.786;7.840;2023-08-21T05:44:25;9.77;;;8.20;;
21806;SDS011;11065;50.786;7.840;2023-08-21T05:46:53;10.57;;;8.80;;
21806;SDS011;11065;50.786;7.840;2023-08-21T05:49:21;10.17;;;8.50;;
21806;SDS011;11065;50.786;7.840;2023-08-21T05:51:51;9.77;;;8.63;;
21806;SDS011;11065;50.786;7.840;2023-08-21T05:54:20;12.17;;;9.20;;
21806;SDS011;11065;50.786;7.840;2023-08-21T05:56:48;10.40;;;8.23;;
21806;SDS011;11065;50.786;7.840;2023-08-21T05:59:25;9.73;;;8.73;;
21806;SDS011;11065;50.786;7.840;2023-08-21T06:01:54;10.27;;;8.93;;
21806;SDS011;11065;50.786;7.840;2023-08-21T06:04:23;13.93;;;9.33;;
21806;SDS011;11065;50.786;7.840;2023-08-21T06:06:58;10.70;;;9.00;;
21806;SDS011;11065;50.786;7.840;2023-08-21T06:09:26;10.00;;;8.90;;
21806;SDS011;11065;50.786;7.840;2023-08-21T06:11:57;12.80;;;8.10;;
21806;SDS011;11065;50.786;7.840;2023-08-21T06:14:25;10.53;;;8.57;;
21806;SDS011;11065;50.786;7.840;2023-08-21T06:16:59;10.87;;;9.37;;
21806;SDS011;11065;50.786;7.840;2023-08-21T06:19:28;12.90;;;9.17;;
21806;SDS011;11065;50.786;7.840;2023-08-21T06:21:56;11.73;;;8.90;;
21806;SDS011;11065;50.786;7.840;2023-08-21T06:24:26;11.03;;;9.93;;
21806;SDS011;11065;50.786;7.840;2023-08-21T06:26:59;12.67;;;9.93;;
21806;SDS011;11065;50.786;7.840;2023-08-21T06:29:28;12.33;;;10.53;;
21806;SDS011;11065;50.786;7.840;2023-08-21T06:31:55;12.03;;;10.07;;
21806;SDS011;11065;50.786;7.840;2023-08-21T06:34:24;11.17;;;9.53;;
21806;SDS011;11065;50.786;7.840;2023-08-21T06:36:52;10.33;;;9.27;;
21806;SDS011;11065;50.786;7.840;2023-08-21T06:39:21;11.50;;;10.10;;
21806;SDS011;11065;50.786;7.840;2023-08-21T06:41:49;11.23;;;10.03;;
21806;SDS011;11065;50.786;7.840;2023-08-21T06:44:18;11.93;;;9.27;;
21806;SDS011;11065;50.786;7.840;2023-08-21T06:46:46;11.93;;;9.63;;
21806;SDS011;11065;50.786;7.840;2023-08-21T06:49:15;12.07;;;10.37;;
21806;SDS011;11065;50.786;7.840;2023-08-21T06:51:43;11.03;;;9.93;;
21806;SDS011;11065;50.786;7.840;2023-08-21T06:54:11;13.73;;;9.83;;
21806;SDS011;11065;50.786;7.840;2023-08-21T06:56:40;13.60;;;9.80;;
21806;SDS011;11065;50.786;7.840;2023-08-21T06:59:08;12.03;;;9.87;;
21806;SDS011;11065;50.786;7.840;2023-08-21T07:01:36;11.73;;;10.30;;
21806;SDS011;11065;50.786;7.840;2023-08-21T07:04:04;11.80;;;10.17;;
21806;SDS011;11065;50.786;7.840;2023-08-21T07:06:32;11.37;;;10.17;;
21806;SDS011;11065;50.786;7.840;2023-08-21T07:09:00;14.00;;;9.77;;
21806;SDS011;11065;50.786;7.840;2023-08-21T07:11:28;12.70;;;9.37;;
21806;SDS011;11065;50.786;7.840;2023-08-21T07:13:57;11.23;;;9.73;;
21806;SDS011;11065;50.786;7.840;2023-08-21T07:16:25;11.13;;;9.53;;
21806;SDS011;11065;50.786;7.840;2023-08-21T07:18:53;10.27;;;9.17;;
21806;SDS011;11065;50.786;7.840;2023-08-21T07:21:21;10.90;;;9.73;;
21806;SDS011;11065;50.786;7.840;2023-08-21T07:23:59;13.60;;;9.70;;
21806;SDS011;11065;50.786;7.840;2023-08-21T07:26:27;10.77;;;9.37;;
21806;SDS011;11065;50.786;7.840;2023-08-21T07:28:55;11.37;;;9.57;;
21806;SDS011;11065;50.786;7.840;2023-08-21T07:31:25;12.77;;;10.63;;
21806;SDS011;11065;50.786;7.840;2023-08-21T07:33:53;12.00;;;10.53;;
21806;SDS011;11065;50.786;7.840;2023-08-21T07:36:21;11.10;;;10.00;;
21806;SDS011;11065;50.786;7.840;2023-08-21T07:38:49;10.80;;;9.60;;
21806;SDS011;11065;50.786;7.840;2023-08-21T07:41:17;11.13;;;9.93;;
21806;SDS011;11065;50.786;7.840;2023-08-21T07:43:45;12.43;;;10.27;;
21806;SDS011;11065;50.786;7.840;2023-08-21T07:46:15;10.47;;;9.27;;
21806;SDS011;11065;50.786;7.840;2023-08-21T07:48:44;11.53;;;9.90;;
21806;SDS011;11065;50.786;7.840;2023-08-21T07:51:13;11.80;;;10.33;;
21806;SDS011;11065;50.786;7.840;2023-08-21T07:53:41;11.37;;;9.87;;
21806;SDS011;11065;50.786;7.840;2023-08-21T07:56:09;10.00;;;8.87;;
21806;SDS011;11065;50.786;7.840;2023-08-21T07:58:37;10.93;;;9.07;;
21806;SDS011;11065;50.786;7.840;2023-08-21T08:01:05;10.67;;;8.67;;
21806;SDS011;11065;50.786;7.840;2023-08-21T08:03:34;9.70;;;8.37;;
21806;SDS011;11065;50.786;7.840;2023-08-21T08:06:04;10.03;;;8.40;;
21806;SDS011;11065;50.786;7.840;2023-08-21T08:08:32;9.80;;;8.17;;
21806;SDS011;11065;50.786;7.840;2023-08-21T08:11:01;9.57;;;8.57;;
21806;SDS011;11065;50.786;7.840;2023-08-21T08:13:30;9.90;;;8.00;;
21806;SDS011;11065;50.786;7.840;2023-08-21T08:15:58;8.50;;;7.60;;
21806;SDS011;11065;50.786;7.840;2023-08-21T08:18:27;9.67;;;7.93;;
21806;SDS011;11065;50.786;7.840;2023-08-21T08:20:56;9.47;;;7.77;;
21806;SDS011;11065;50.786;7.840;2023-08-21T08:23:24;9.05;;;8.15;;
21806;SDS011;11065;50.786;7.840;2023-08-21T08:25:52;9.35;;;8.40;;
21806;SDS011;11065;50.786;7.840;2023-08-21T08:28:20;10.02;;;8.90;;
21806;SDS011;11065;50.786;7.840;2023-08-21T08:30:48;7.93;;;7.13;;
21806;SDS011;11065;50.786;7.840;2023-08-21T08:33:16;9.57;;;7.05;;
21806;SDS011;11065;50.786;7.840;2023-08-21T08:35:44;7.63;;;6.50;;
21806;SDS011;11065;50.786;7.840;2023-08-21T08:38:13;8.38;;;6.68;;
21806;SDS011;11065;50.786;7.840;2023-08-21T08:40:44;6.88;;;6.15;;
21806;SDS011;11065;50.786;7.840;2023-08-21T08:43:13;7.32;;;6.47;;
21806;SDS011;11065;50.786;7.840;2023-08-21T08:45:41;6.30;;;5.70;;
21806;SDS011;11065;50.786;7.840;2023-08-21T08:48:14;6.72;;;5.45;;
21806;SDS011;11065;50.786;7.840;2023-08-21T08:50:43;6.25;;;5.65;;
21806;SDS011;11065;50.786;7.840;2023-08-21T08:53:14;7.57;;;5.57;;
21806;SDS011;11065;50.786;7.840;2023-08-21T08:55:43;5.50;;;5.00;;
21806;SDS011;11065;50.786;7.840;2023-08-21T08:58:11;6.20;;;5.22;;
21806;SDS011;11065;50.786;7.840;2023-08-21T09:00:39;5.95;;;5.35;;
21806;SDS011;11065;50.786;7.840;2023-08-21T09:03:08;5.95;;;5.35;;
21806;SDS011;11065;50.786;7.840;2023-08-21T09:05:36;5.75;;;5.18;;
21806;SDS011;11065;50.786;7.840;2023-08-21T09:08:10;5.32;;;4.75;;
21806;SDS011;11065;50.786;7.840;2023-08-21T09:10:40;5.03;;;4.50;;
21806;SDS011;11065;50.786;7.840;2023-08-21T09:13:12;5.22;;;4.53;;
21806;SDS011;11065;50.786;7.840;2023-08-21T09:15:41;4.82;;;4.30;;
21806;SDS011;11065;50.786;7.840;2023-08-21T09:18:10;4.70;;;4.30;;
21806;SDS011;11065;50.786;7.840;2023-08-21T09:20:39;6.05;;;4.45;;
21806;SDS011;11065;50.786;7.840;2023-08-21T09:23:07;6.05;;;4.47;;
21806;SDS011;11065;50.786;7.840;2023-08-21T09:25:41;5.30;;;3.65;;
21806;SDS011;11065;50.786;7.840;2023-08-21T09:28:13;4.40;;;4.00;;
21806;SDS011;11065;50.786;7.840;2023-08-21T09:30:46;5.68;;;3.80;;
21806;SDS011;11065;50.786;7.840;2023-08-21T09:33:18;4.63;;;4.22;;
21806;SDS011;11065;50.786;7.840;2023-08-21T09:35:47;4.97;;;4.30;;
21806;SDS011;11065;50.786;7.840;2023-08-21T09:38:16;4.22;;;3.83;;
21806;SDS011;11065;50.786;7.840;2023-08-21T09:40:51;4.88;;;3.92;;
21806;SDS011;11065;50.786;7.840;2023-08-21T09:43:22;4.38;;;3.97;;
21806;SDS011;11065;50.786;7.840;2023-08-21T09:45:51;4.43;;;4.03;;
21806;SDS011;11065;50.786;7.840;2023-08-21T09:48:22;4.75;;;4.35;;
21806;SDS011;11065;50.786;7.840;2023-08-21T09:50:53;4.65;;;4.25;;
21806;SDS011;11065;50.786;7.840;2023-08-21T09:53:22;4.72;;;4.32;;
21806;SDS011;11065;50.786;7.840;2023-08-21T09:55:53;4.75;;;4.32;;
21806;SDS011;11065;50.786;7.840;2023-08-21T09:58:22;5.63;;;4.40;;
21806;SDS011;11065;50.786;7.840;2023-08-21T10:00:50;5.03;;;4.53;;
21806;SDS011;11065;50.786;7.840;2023-08-21T10:03:23;6.38;;;3.83;;
21806;SDS011;11065;50.786;7.840;2023-08-21T10:05:54;4.78;;;4.20;;
21806;SDS011;11065;50.786;7.840;2023-08-21T10:08:25;5.35;;;4.30;;
21806;SDS011;11065;50.786;7.840;2023-08-21T10:10:56;4.30;;;3.90;;
21806;SDS011;11065;50.786;7.840;2023-08-21T10:13:29;5.30;;;4.28;;
21806;SDS011;11065;50.786;7.840;2023-08-21T10:15:57;5.38;;;4.40;;
21806;SDS011;11065;50.786;7.840;2023-08-21T10:18:29;5.18;;;4.10;;
21806;SDS011;11065;50.786;7.840;2023-08-21T10:21:09;4.55;;;4.15;;
21806;SDS011;11065;50.786;7.840;2023-08-21T10:23:39;4.10;;;3.70;;
21806;SDS011;11065;50.786;7.840;2023-08-21T10:26:13;6.07;;;4.15;;
21806;SDS011;11065;50.786;7.840;2023-08-21T10:28:41;4.63;;;3.95;;
21806;SDS011;11065;50.786;7.840;2023-08-21T10:31:28;3.85;;;3.53;;
21806;SDS011;11065;50.786;7.840;2023-08-21T10:33:58;4.45;;;4.05;;
21806;SDS011;11065;50.786;7.840;2023-08-21T10:39:36;5.60;;;3.85;;
21806;SDS011;11065;50.786;7.840;2023-08-21T10:42:08;4.50;;;4.10;;
21806;SDS011;11065;50.786;7.840;2023-08-21T10:44:47;4.18;;;3.55;;
21806;SDS011;11065;50.786;7.840;2023-08-21T10:47:22;3.90;;;3.47;;
21806;SDS011;11065;50.786;7.840;2023-08-21T10:50:00;3.80;;;3.17;;
21806;SDS011;11065;50.786;7.840;2023-08-21T10:52:31;3.78;;;3.35;;
21806;SDS011;11065;50.786;7.840;2023-08-21T10:55:02;3.20;;;2.83;;
21806;SDS011;11065;50.786;7.840;2023-08-21T10:57:32;3.53;;;3.22;;
21806;SDS011;11065;50.786;7.840;2023-08-21T11:00:03;3.38;;;2.78;;
21806;SDS011;11065;50.786;7.840;2023-08-21T11:02:33;4.97;;;3.30;;
21806;SDS011;11065;50.786;7.840;2023-08-21T11:05:03;3.63;;;3.25;;
21806;SDS011;11065;50.786;7.840;2023-08-21T11:07:36;3.80;;;2.70;;
21806;SDS011;11065;50.786;7.840;2023-08-21T11:10:06;3.17;;;2.88;;
21806;SDS011;11065;50.786;7.840;2023-08-21T11:12:39;4.30;;;2.47;;
21806;SDS011;11065;50.786;7.840;2023-08-21T11:15:16;4.00;;;3.17;;
21806;SDS011;11065;50.786;7.840;2023-08-21T11:17:53;4.80;;;2.95;;
21806;SDS011;11065;50.786;7.840;2023-08-21T11:20:22;3.35;;;2.97;;
21806;SDS011;11065;50.786;7.840;2023-08-21T11:22:50;4.43;;;3.00;;
21806;SDS011;11065;50.786;7.840;2023-08-21T11:25:23;4.60;;;3.10;;
21806;SDS011;11065;50.786;7.840;2023-08-21T11:27:53;3.80;;;3.35;;
21806;SDS011;11065;50.786;7.840;2023-08-21T11:30:21;4.10;;;3.45;;
21806;SDS011;11065;50.786;7.840;2023-08-21T11:33:03;3.45;;;2.97;;
21806;SDS011;11065;50.786;7.840;2023-08-21T11:35:32;3.45;;;2.97;;
21806;SDS011;11065;50.786;7.840;2023-08-21T11:38:00;4.10;;;3.58;;
21806;SDS011;11065;50.786;7.840;2023-08-21T11:40:28;5.72;;;3.40;;
21806;SDS011;11065;50.786;7.840;2023-08-21T11:43:00;5.50;;;3.25;;
21806;SDS011;11065;50.786;7.840;2023-08-21T11:45:29;3.58;;;2.75;;
21806;SDS011;11065;50.786;7.840;2023-08-21T11:48:10;7.60;;;2.83;;
21806;SDS011;11065;50.786;7.840;2023-08-21T11:50:38;3.10;;;2.80;;
21806;SDS011;11065;50.786;7.840;2023-08-21T11:53:09;3.53;;;2.85;;
21806;SDS011;11065;50.786;7.840;2023-08-21T11:55:37;3.97;;;3.05;;
21806;SDS011;11065;50.786;7.840;2023-08-21T11:58:08;3.22;;;2.70;;
21806;SDS011;11065;50.786;7.840;2023-08-21T12:00:36;3.60;;;2.78;;
21806;SDS011;11065;50.786;7.840;2023-08-21T12:03:07;5.60;;;3.33;;
21806;SDS011;11065;50.786;7.840;2023-08-21T12:05:42;4.68;;;3.03;;
21806;SDS011;11065;50.786;7.840;2023-08-21T12:08:11;3.35;;;2.50;;
21806;SDS011;11065;50.786;7.840;2023-08-21T12:10:39;3.30;;;2.47;;
21806;SDS011;11065;50.786;7.840;2023-08-21T12:13:08;4.22;;;2.58;;
21806;SDS011;11065;50.786;7.840;2023-08-21T12:15:36;2.58;;;2.13;;
21806;SDS011;11065;50.786;7.840;2023-08-21T12:18:04;2.53;;;1.98;;
21806;SDS011;11065;50.786;7.840;2023-08-21T12:20:32;4.30;;;2.30;;
21806;SDS011;11065;50.786;7.840;2023-08-21T12:23:00;3.58;;;2.47;;
21806;SDS011;11065;50.786;7.840;2023-08-21T12:25:28;3.78;;;2.60;;
21806;SDS011;11065;50.786;7.840;2023-08-21T12:27:58;2.92;;;2.15;;
21806;SDS011;11065;50.786;7.840;2023-08-21T12:30:36;3.60;;;2.33;;
21806;SDS011;11065;50.786;7.840;2023-08-21T12:33:04;3.75;;;2.42;;
21806;SDS011;11065;50.786;7.840;2023-08-21T12:35:48;2.63;;;2.38;;
21806;SDS011;11065;50.786;7.840;2023-08-21T12:38:17;3.20;;;2.38;;
21806;SDS011;11065;50.786;7.840;2023-08-21T12:40:46;3.15;;;2.83;;
21806;SDS011;11065;50.786;7.840;2023-08-21T12:43:14;4.68;;;2.80;;
21806;SDS011;11065;50.786;7.840;2023-08-21T12:45:43;4.72;;;3.30;;
21806;SDS011;11065;50.786;7.840;2023-08-21T12:48:11;4.22;;;2.92;;
21806;SDS011;11065;50.786;7.840;2023-08-21T12:50:39;3.83;;;3.05;;
21806;SDS011;11065;50.786;7.840;2023-08-21T12:53:07;3.78;;;2.97;;
21806;SDS011;11065;50.786;7.840;2023-08-21T12:55:35;3.42;;;2.67;;
21806;SDS011;11065;50.786;7.840;2023-08-21T12:58:03;3.05;;;2.60;;
21806;SDS011;11065;50.786;7.840;2023-08-21T13:00:31;3.03;;;2.60;;
21806;SDS011;11065;50.786;7.840;2023-08-21T13:03:01;3.30;;;2.70;;
21806;SDS011;11065;50.786;7.840;2023-08-21T13:05:30;3.60;;;2.60;;
21806;SDS011;11065;50.786;7.840;2023-08-21T13:07:57;3.72;;;3.00;;
21806;SDS011;11065;50.786;7.840;2023-08-21T13:10:25;3.47;;;2.88;;
21806;SDS011;11065;50.786;7.840;2023-08-21T13:12:53;3.50;;;2.75;;
21806;SDS011;11065;50.786;7.840;2023-08-21T13:15:21;3.90;;;3.10;;
21806;SDS011;11065;50.786;7.840;2023-08-21T13:17:49;5.70;;;3.05;;
21806;SDS011;11065;50.786;7.840;2023-08-21T13:20:19;4.45;;;3.08;;
21806;SDS011;11065;50.786;7.840;2023-08-21T13:22:47;4.40;;;3.47;;
21806;SDS011;11065;50.786;7.840;2023-08-21T13:25:17;5.47;;;3.33;;
21806;SDS011;11065;50.786;7.840;2023-08-21T13:27:46;4.22;;;3.33;;
21806;SDS011;11065;50.786;7.840;2023-08-21T13:30:14;4.93;;;3.50;;
21806;SDS011;11065;50.786;7.840;2023-08-21T13:32:42;4.47;;;3.45;;
21806;SDS011;11065;50.786;7.840;2023-08-21T13:35:10;4.22;;;3.10;;
21806;SDS011;11065;50.786;7.840;2023-08-21T13:37:40;3.90;;;3.13;;
21806;SDS011;11065;50.786;7.840;2023-08-21T13:40:09;3.55;;;3.25;;
21806;SDS011;11065;50.786;7.840;2023-08-21T13:42:39;4.75;;;3.42;;
21806;SDS011;11065;50.786;7.840;2023-08-21T13:45:08;3.45;;;2.88;;
21806;SDS011;11065;50.786;7.840;2023-08-21T13:47:37;3.35;;;2.88;;
21806;SDS011;11065;50.786;7.840;2023-08-21T13:50:07;4.30;;;3.42;;
21806;SDS011;11065;50.786;7.840;2023-08-21T13:52:35;4.65;;;3.70;;
21806;SDS011;11065;50.786;7.840;2023-08-21T13:55:07;5.55;;;3.65;;
21806;SDS011;11065;50.786;7.840;2023-08-21T13:57:36;4.38;;;3.72;;
21806;SDS011;11065;50.786;7.840;2023-08-21T14:00:05;6.28;;;3.75;;
21806;SDS011;11065;50.786;7.840;2023-08-21T14:02:38;8.18;;;3.58;;
21806;SDS011;11065;50.786;7.840;2023-08-21T14:05:07;4.75;;;3.67;;
21806;SDS011;11065;50.786;7.840;2023-08-21T14:07:36;4.10;;;3.58;;
21806;SDS011;11065;50.786;7.840;2023-08-21T14:10:07;6.80;;;3.67;;
21806;SDS011;11065;50.786;7.840;2023-08-21T14:12:36;4.32;;;3.90;;
21806;SDS011;11065;50.786;7.840;2023-08-21T14:15:07;5.10;;;3.83;;
21806;SDS011;11065;50.786;7.840;2023-08-21T14:17:36;4.22;;;3.83;;
21806;SDS011;11065;50.786;7.840;2023-08-21T14:20:06;4.18;;;3.78;;
21806;SDS011;11065;50.786;7.840;2023-08-21T14:22:34;4.55;;;4.15;;
21806;SDS011;11065;50.786;7.840;2023-08-21T14:25:03;4.65;;;3.92;;
21806;SDS011;11065;50.786;7.840;2023-08-21T14:27:33;6.18;;;4.15;;
21806;SDS011;11065;50.786;7.840;2023-08-21T14:30:03;4.60;;;3.72;;
21806;SDS011;11065;50.786;7.840;2023-08-21T14:32:32;5.20;;;4.70;;
21806;SDS011;11065;50.786;7.840;2023-08-21T14:35:03;4.55;;;3.72;;
21806;SDS011;11065;50.786;7.840;2023-08-21T14:37:33;4.53;;;3.55;;
21806;SDS011;11065;50.786;7.840;2023-08-21T14:40:01;4.28;;;3.88;;
21806;SDS011;11065;50.786;7.840;2023-08-21T14:42:34;4.88;;;3.90;;
21806;SDS011;11065;50.786;7.840;2023-08-21T14:45:03;4.60;;;3.72;;
21806;SDS011;11065;50.786;7.840;2023-08-21T14:47:32;5.05;;;3.50;;
21806;SDS011;11065;50.786;7.840;2023-08-21T14:50:00;4.43;;;3.70;;
21806;SDS011;11065;50.786;7.840;2023-08-21T14:52:28;3.42;;;3.13;;
21806;SDS011;11065;50.786;7.840;2023-08-21T14:54:56;4.30;;;3.35;;
21806;SDS011;11065;50.786;7.840;2023-08-21T14:57:24;3.80;;;3.33;;
21806;SDS011;11065;50.786;7.840;2023-08-21T14:59:53;4.40;;;3.40;;